Terminal Aerodrome Forecast
Issued by NWS

Home | Current Version | Previous Version | Text Only | Print | Product List | Glossary On
Versions: 1 2 3 4 5 6 7 8 9 10 11 12 13 14 15
000
FTUS46 KSTO 241100 RRA
TAFRBL
TAF
KRBL 241146Z 2412/2512 36005KT P6SM BKN050 BKN250
      TEMPO 2413/2417 4SM BR
     FM241800 17011KT P6SM SCT250
     FM251100 16018G25KT P6SM VCSH BKN050 BKN250 PROB30 2511/2512
      P6SM -RA BKN030=

USA.gov is the U.S. government's official web portal to all federal, state and local government web resources and services.